Time;durP1;ratioP1;P1;durP2;ratioP2;P2;SDS_P1;SDS_P2;PMS_P1;PMS_P2;Temp;Humidity;BMP_temperature;BMP_pressure;BME280_temperature;BME280_humidity;BME280_pressure;Samples;Min_cycle;Max_cycle;Signal;HPM_P1;HPM_P2
2021/11/22 00:00:32;;;;;;;13.98;12.15;;;;;;;;;;5061851;28;20056;-53
2021/11/22 00:02:57;;;;;;;11.98;10.38;;;;;;;;;;5062185;28;20094;-51
2021/11/22 00:05:23;;;;;;;24.98;12.57;;;;;;;;;;5062505;28;20048;-50
2021/11/22 00:07:48;;;;;;;49.28;32.95;;;;;;;;;;5062222;28;20044;-53
2021/11/22 00:10:14;;;;;;;34.88;23.10;;;;;;;;;;5062482;28;20048;-53
2021/11/22 00:12:39;;;;;;;30.05;16.75;;;;;;;;;;5064241;28;20470;-53
2021/11/22 00:15:12;;;;;;;17.35;13.60;;;;;;;;;;5065701;28;20451;-51
2021/11/22 00:17:38;;;;;;;9.10;7.55;;;;;;;;;;5064711;28;20051;-49
2021/11/22 00:20:04;;;;;;;7.57;6.00;;;;;;;;;;5066432;28;20056;-49
2021/11/22 00:22:31;;;;;;;4.80;4.30;;;;;;;;;;5064535;28;20044;-53
2021/11/22 00:24:56;;;;;;;6.38;4.93;;;;;;;;;;5065251;28;20044;-53
2021/11/22 00:27:21;;;;;;;7.07;5.60;;;;;;;;;;5065548;28;20051;-51
2021/11/22 00:29:46;;;;;;;11.32;6.60;;;;;;;;;;5072189;28;20514;-52
2021/11/22 00:32:12;;;;;;;4.78;2.92;;;;;;;;;;5062479;28;20048;-51
2021/11/22 00:34:44;;;;;;;6.15;3.30;;;;;;;;;;5064875;28;20094;-54
2021/11/22 00:37:17;;;;;;;3.90;2.88;;;;;;;;;;5062615;28;20095;-47
2021/11/22 00:39:42;;;;;;;7.55;3.40;;;;;;;;;;5064535;28;20503;-50
2021/11/22 00:42:08;;;;;;;9.68;5.07;;;;;;;;;;5059503;28;20103;-53
2021/11/22 00:44:35;;;;;;;4.72;3.55;;;;;;;;;;5060679;28;20094;-50
2021/11/22 00:47:00;;;;;;;7.60;5.07;;;;;;;;;;5062638;28;20486;-52
2021/11/22 00:49:25;;;;;;;17.98;6.50;;;;;;;;;;5060023;28;20056;-49
2021/11/22 00:51:51;;;;;;;8.45;6.63;;;;;;;;;;5056316;28;20137;-48
2021/11/22 00:54:16;;;;;;;6.50;5.57;;;;;;;;;;5059875;28;20048;-49
2021/11/22 00:56:41;;;;;;;9.48;6.93;;;;;;;;;;5065342;28;20060;-52
2021/11/22 00:59:07;;;;;;;11.40;7.32;;;;;;;;;;5064629;28;20368;-50
2021/11/22 01:01:32;;;;;;;9.85;6.88;;;;;;;;;;5064639;28;20781;-50
2021/11/22 01:03:57;;;;;;;6.05;4.75;;;;;;;;;;5064105;28;20048;-50
2021/11/22 01:06:23;;;;;;;6.53;5.15;;;;;;;;;;5062854;28;20047;-52
2021/11/22 01:08:48;;;;;;;5.47;3.95;;;;;;;;;;5064049;28;20076;-49
2021/11/22 01:11:13;;;;;;;10.15;4.93;;;;;;;;;;5064402;28;20037;-50
2021/11/22 01:13:39;;;;;;;12.38;4.60;;;;;;;;;;5061580;28;20040;-49
2021/11/22 01:16:30;;;;;;;7.13;5.03;;;;;;;;;;5070636;28;20239;-49
2021/11/22 01:18:56;;;;;;;5.88;4.78;;;;;;;;;;5081486;28;20024;-52
2021/11/22 01:21:21;;;;;;;5.88;3.83;;;;;;;;;;5084410;28;20109;-50
2021/11/22 01:23:46;;;;;;;5.50;3.17;;;;;;;;;;5082674;28;20055;-52
2021/11/22 01:26:12;;;;;;;15.27;4.20;;;;;;;;;;5084508;28;20062;-49
2021/11/22 01:28:37;;;;;;;5.93;3.50;;;;;;;;;;5084885;28;20182;-50
2021/11/22 01:31:02;;;;;;;4.22;3.22;;;;;;;;;;5085161;28;20102;-52
2021/11/22 01:33:28;;;;;;;7.93;3.13;;;;;;;;;;5084347;28;20454;-52
2021/11/22 01:35:53;;;;;;;10.57;2.97;;;;;;;;;;5082019;28;20750;-50
2021/11/22 01:38:18;;;;;;;4.68;2.95;;;;;;;;;;5085397;28;20040;-49
2021/11/22 01:40:45;;;;;;;3.85;3.13;;;;;;;;;;5084821;28;20051;-53
2021/11/22 01:43:14;;;;;;;3.92;2.78;;;;;;;;;;5087171;28;20047;-48
2021/11/22 01:45:40;;;;;;;5.03;3.30;;;;;;;;;;5082065;28;20425;-52
2021/11/22 01:48:05;;;;;;;12.00;3.88;;;;;;;;;;5081163;28;20044;-53
2021/11/22 01:50:31;;;;;;;4.32;3.33;;;;;;;;;;5079555;28;20044;-48
2021/11/22 01:52:56;;;;;;;4.65;2.72;;;;;;;;;;5081860;28;20048;-51
2021/11/22 01:55:23;;;;;;;4.72;2.88;;;;;;;;;;5081493;28;20677;-50
2021/11/22 01:57:49;;;;;;;2.28;2.03;;;;;;;;;;5081383;28;20051;-51
2021/11/22 02:00:20;;;;;;;5.05;1.67;;;;;;;;;;5079450;28;20036;-49
2021/11/22 02:02:46;;;;;;;7.68;1.40;;;;;;;;;;5082131;28;20040;-50
2021/11/22 02:05:11;;;;;;;6.28;1.30;;;;;;;;;;5085716;28;20048;-51
2021/11/22 02:07:37;;;;;;;1.80;1.20;;;;;;;;;;5084710;28;20036;-51
2021/11/22 02:10:04;;;;;;;3.90;1.90;;;;;;;;;;5080543;28;20557;-49
2021/11/22 02:12:33;;;;;;;3.75;2.03;;;;;;;;;;5084137;28;20510;-53
2021/11/22 02:14:58;;;;;;;5.78;3.20;;;;;;;;;;5084868;28;20047;-51
2021/11/22 02:17:23;;;;;;;3.38;2.85;;;;;;;;;;5081854;28;20033;-53
2021/11/22 02:20:02;;;;;;;5.53;3.15;;;;;;;;;;5086137;28;20044;-49
2021/11/22 02:22:28;;;;;;;3.00;2.15;;;;;;;;;;5082807;28;20520;-53
2021/11/22 02:24:53;;;;;;;7.55;3.35;;;;;;;;;;5085650;28;20123;-50
2021/11/22 02:27:19;;;;;;;4.82;2.60;;;;;;;;;;5086678;28;20552;-48
2021/11/22 02:29:44;;;;;;;4.38;1.80;;;;;;;;;;5086126;28;20055;-48
2021/11/22 02:32:10;;;;;;;5.10;2.92;;;;;;;;;;5085742;28;20048;-50
2021/11/22 02:34:37;;;;;;;7.15;4.25;;;;;;;;;;5085748;28;20507;-52
2021/11/22 02:37:02;;;;;;;7.57;4.53;;;;;;;;;;5086948;28;20060;-51
2021/11/22 02:39:27;;;;;;;6.55;5.35;;;;;;;;;;5086673;28;20132;-47
2021/11/22 02:41:53;;;;;;;9.48;5.80;;;;;;;;;;5086575;28;20048;-51
2021/11/22 02:44:18;;;;;;;12.40;5.55;;;;;;;;;;5086143;28;20044;-51
2021/11/22 02:46:43;;;;;;;11.93;5.57;;;;;;;;;;5081220;28;20445;-49
2021/11/22 02:49:09;;;;;;;5.88;4.07;;;;;;;;;;5085641;28;20051;-50
2021/11/22 02:51:34;;;;;;;6.47;4.90;;;;;;;;;;5083556;28;20048;-47
2021/11/22 02:54:03;;;;;;;5.93;3.90;;;;;;;;;;5085256;28;20071;-50
2021/11/22 02:56:32;;;;;;;5.10;3.25;;;;;;;;;;5083456;28;20046;-49
2021/11/22 02:58:58;;;;;;;12.40;3.80;;;;;;;;;;5086727;28;20040;-49
2021/11/22 03:01:23;;;;;;;3.13;2.47;;;;;;;;;;5086308;28;20536;-48
2021/11/22 03:03:48;;;;;;;11.25;5.28;;;;;;;;;;5087020;28;20040;-48
2021/11/22 03:06:16;;;;;;;6.13;4.95;;;;;;;;;;5084456;28;20526;-51
2021/11/22 03:08:42;;;;;;;9.73;5.00;;;;;;;;;;5085139;28;20550;-50
2021/11/22 03:11:08;;;;;;;6.85;4.50;;;;;;;;;;5080909;28;20091;-50
2021/11/22 03:13:33;;;;;;;13.73;4.55;;;;;;;;;;5083512;28;20036;-47
2021/11/22 03:15:58;;;;;;;7.10;4.35;;;;;;;;;;5084117;28;20051;-49
2021/11/22 03:18:24;;;;;;;3.47;2.92;;;;;;;;;;5084740;28;20048;-52
2021/11/22 03:20:49;;;;;;;6.13;3.10;;;;;;;;;;5085520;28;20420;-52
2021/11/22 03:23:15;;;;;;;4.88;4.03;;;;;;;;;;5085765;28;20498;-55
2021/11/22 03:25:40;;;;;;;5.35;4.82;;;;;;;;;;5084259;28;20102;-49
2021/11/22 03:28:06;;;;;;;7.32;5.00;;;;;;;;;;5086266;28;20035;-51
2021/11/22 03:30:32;;;;;;;4.65;4.03;;;;;;;;;;5083227;28;20047;-50
2021/11/22 03:32:57;;;;;;;15.02;5.05;;;;;;;;;;5085384;28;20058;-51
2021/11/22 03:35:23;;;;;;;6.45;4.53;;;;;;;;;;5085833;28;20059;-50
2021/11/22 03:37:48;;;;;;;5.80;5.20;;;;;;;;;;5086600;28;20036;-47
2021/11/22 03:40:13;;;;;;;6.18;4.00;;;;;;;;;;5086132;28;20056;-50
2021/11/22 03:43:12;;;;;;;6.70;5.40;;;;;;;;;;5086553;28;20509;-51
2021/11/22 03:45:24;;;;;;;8.13;3.72;;;;;;;;;;5085726;28;20739;-46
2021/11/22 03:47:50;;;;;;;9.52;3.50;;;;;;;;;;5089599;28;20032;-45
2021/11/22 03:50:15;;;;;;;4.93;3.78;;;;;;;;;;5088518;28;20825;-52
2021/11/22 03:52:41;;;;;;;2.50;2.13;;;;;;;;;;5086950;28;20040;-50
2021/11/22 03:55:06;;;;;;;7.85;3.63;;;;;;;;;;5090425;28;20043;-53
2021/11/22 03:57:31;;;;;;;8.38;3.20;;;;;;;;;;5087716;28;20096;-52
2021/11/22 03:59:57;;;;;;;6.25;3.03;;;;;;;;;;5084850;28;20044;-50
2021/11/22 04:02:22;;;;;;;3.55;2.53;;;;;;;;;;5088785;28;20044;-51
2021/11/22 04:04:48;;;;;;;4.25;3.38;;;;;;;;;;5088354;28;20044;-53
2021/11/22 04:07:13;;;;;;;3.22;2.72;;;;;;;;;;5088814;28;20130;-50
2021/11/22 04:09:38;;;;;;;3.40;2.47;;;;;;;;;;5089031;28;20097;-52
2021/11/22 04:12:04;;;;;;;5.00;3.05;;;;;;;;;;5087259;28;20044;-52
2021/11/22 04:14:29;;;;;;;6.45;3.63;;;;;;;;;;5089860;28;20135;-49
2021/11/22 04:16:54;;;;;;;3.85;2.53;;;;;;;;;;5089626;28;20559;-50
2021/11/22 04:19:20;;;;;;;8.00;3.60;;;;;;;;;;5089482;28;20474;-50
2021/11/22 04:21:45;;;;;;;6.60;4.72;;;;;;;;;;5089878;28;20621;-49
2021/11/22 04:24:10;;;;;;;7.30;3.42;;;;;;;;;;5089642;28;20550;-50
2021/11/22 04:26:36;;;;;;;12.85;3.47;;;;;;;;;;5089467;28;20226;-48
2021/11/22 04:29:01;;;;;;;6.13;3.95;;;;;;;;;;5088853;28;20140;-50
2021/11/22 04:31:26;;;;;;;6.55;4.43;;;;;;;;;;5087616;28;20054;-50
2021/11/22 04:33:52;;;;;;;6.75;3.00;;;;;;;;;;5088862;28;20056;-51
2021/11/22 04:36:17;;;;;;;4.22;3.70;;;;;;;;;;5088305;28;20134;-53
2021/11/22 04:38:42;;;;;;;7.45;4.22;;;;;;;;;;5088745;28;20074;-52
2021/11/22 04:41:08;;;;;;;14.15;3.65;;;;;;;;;;5088703;28;20039;-52
2021/11/22 04:43:33;;;;;;;4.97;3.50;;;;;;;;;;5088817;28;20068;-53
2021/11/22 04:45:58;;;;;;;5.03;3.40;;;;;;;;;;5088839;28;20548;-49
2021/11/22 04:48:24;;;;;;;3.33;2.83;;;;;;;;;;5088945;28;20040;-51
2021/11/22 04:50:49;;;;;;;9.20;3.78;;;;;;;;;;5083639;28;20067;-51
2021/11/22 04:53:15;;;;;;;4.25;3.85;;;;;;;;;;5087749;28;20064;-50
2021/11/22 04:55:40;;;;;;;4.70;3.15;;;;;;;;;;5088370;28;20052;-47
2021/11/22 04:58:07;;;;;;;3.55;2.95;;;;;;;;;;5086208;28;20509;-50
2021/11/22 05:00:33;;;;;;;8.15;4.28;;;;;;;;;;5088427;28;20050;-53
2021/11/22 05:02:58;;;;;;;6.50;3.65;;;;;;;;;;5087587;28;20700;-52
2021/11/22 05:05:24;;;;;;;6.60;3.65;;;;;;;;;;5087764;28;21078;-50
2021/11/22 05:07:51;;;;;;;3.72;2.95;;;;;;;;;;5088546;28;20032;-46
2021/11/22 05:10:17;;;;;;;8.65;3.72;;;;;;;;;;5085724;28;20193;-49
2021/11/22 05:12:43;;;;;;;4.93;2.55;;;;;;;;;;5082847;28;20119;-48
2021/11/22 05:15:08;;;;;;;3.83;3.33;;;;;;;;;;5086577;28;20127;-48
2021/11/22 05:17:34;;;;;;;8.40;3.00;;;;;;;;;;5087015;28;20105;-48
2021/11/22 05:20:00;;;;;;;5.55;3.10;;;;;;;;;;5087067;28;20455;-53
2021/11/22 05:22:25;;;;;;;6.50;2.88;;;;;;;;;;5083760;28;20105;-52
2021/11/22 05:24:51;;;;;;;4.97;2.70;;;;;;;;;;5085770;28;20039;-46
2021/11/22 05:27:17;;;;;;;13.30;2.47;;;;;;;;;;5087714;28;20131;-49
2021/11/22 05:29:42;;;;;;;4.40;3.35;;;;;;;;;;5087776;28;20115;-47
2021/11/22 05:32:08;;;;;;;4.63;3.72;;;;;;;;;;5087012;28;20118;-49
2021/11/22 05:34:33;;;;;;;5.15;3.42;;;;;;;;;;5087433;28;20174;-50
2021/11/22 05:36:59;;;;;;;6.95;2.70;;;;;;;;;;5075503;28;20139;-53
2021/11/22 05:39:24;;;;;;;4.00;3.05;;;;;;;;;;5087092;28;20406;-49
2021/11/22 05:41:50;;;;;;;4.53;3.22;;;;;;;;;;5085868;28;20076;-49
2021/11/22 05:44:15;;;;;;;3.60;1.83;;;;;;;;;;5084783;28;20040;-54
2021/11/22 05:46:40;;;;;;;6.07;3.33;;;;;;;;;;5087234;28;20054;-48
2021/11/22 05:49:06;;;;;;;9.27;7.72;;;;;;;;;;5086106;28;20043;-53
2021/11/22 05:51:31;;;;;;;5.88;4.05;;;;;;;;;;5085478;28;20110;-54
2021/11/22 05:53:58;;;;;;;5.75;3.85;;;;;;;;;;5087627;28;20144;-53
2021/11/22 05:56:23;;;;;;;4.53;2.40;;;;;;;;;;5083621;28;20094;-51
2021/11/22 05:58:49;;;;;;;6.78;6.15;;;;;;;;;;5086466;28;20063;-54
2021/11/22 06:01:14;;;;;;;3.15;2.80;;;;;;;;;;5087745;28;20052;-51
2021/11/22 06:03:40;;;;;;;4.15;2.78;;;;;;;;;;5087115;28;20085;-55
2021/11/22 06:06:05;;;;;;;7.28;3.63;;;;;;;;;;5084173;28;20327;-54
2021/11/22 06:08:30;;;;;;;6.13;2.97;;;;;;;;;;5084573;28;20055;-53
2021/11/22 06:10:56;;;;;;;4.43;3.10;;;;;;;;;;5083187;28;20601;-52
2021/11/22 06:13:22;;;;;;;5.20;2.33;;;;;;;;;;5087494;28;20112;-52
2021/11/22 06:15:47;;;;;;;4.10;2.80;;;;;;;;;;5085201;28;20040;-55
2021/11/22 06:18:13;;;;;;;3.63;2.67;;;;;;;;;;5083966;28;20449;-54
2021/11/22 06:20:39;;;;;;;6.60;3.88;;;;;;;;;;5084778;28;20048;-53
2021/11/22 06:23:05;;;;;;;4.78;4.07;;;;;;;;;;5083502;28;20079;-50
2021/11/22 06:25:30;;;;;;;6.93;2.80;;;;;;;;;;5085560;28;20087;-53
2021/11/22 06:27:56;;;;;;;9.57;3.72;;;;;;;;;;5086941;28;20032;-53
2021/11/22 06:30:21;;;;;;;5.35;3.03;;;;;;;;;;5085759;28;20687;-53
2021/11/22 06:32:47;;;;;;;4.57;2.75;;;;;;;;;;5085915;28;20039;-52
2021/11/22 06:35:12;;;;;;;6.00;2.63;;;;;;;;;;5086146;28;20140;-52
2021/11/22 06:37:38;;;;;;;5.38;4.50;;;;;;;;;;5086873;28;20032;-49
2021/11/22 06:40:05;;;;;;;6.50;4.25;;;;;;;;;;5083422;28;20410;-52
2021/11/22 06:42:30;;;;;;;5.15;3.47;;;;;;;;;;5084466;28;20251;-51
2021/11/22 06:44:55;;;;;;;7.28;4.30;;;;;;;;;;5086133;28;20526;-51
2021/11/22 06:47:23;;;;;;;14.90;5.65;;;;;;;;;;5085527;28;20097;-48
2021/11/22 06:49:49;;;;;;;8.07;4.68;;;;;;;;;;5084692;28;20048;-50
2021/11/22 06:52:16;;;;;;;10.65;4.80;;;;;;;;;;5082742;28;20044;-53
2021/11/22 06:54:41;;;;;;;18.73;11.90;;;;;;;;;;5085977;28;20048;-55
2021/11/22 06:57:07;;;;;;;7.88;6.65;;;;;;;;;;5085603;28;20124;-55
2021/11/22 06:59:34;;;;;;;13.68;7.07;;;;;;;;;;5086286;28;20040;-55
2021/11/22 07:01:59;;;;;;;10.95;6.72;;;;;;;;;;5086845;28;20044;-51
2021/11/22 07:04:24;;;;;;;8.35;7.47;;;;;;;;;;5085313;28;20542;-48
2021/11/22 07:06:51;;;;;;;15.63;12.52;;;;;;;;;;5086114;28;20535;-53
2021/11/22 07:09:17;;;;;;;39.20;21.58;;;;;;;;;;5084609;28;20048;-52
2021/11/22 07:11:43;;;;;;;44.50;32.97;;;;;;;;;;5081514;28;20063;-50
2021/11/22 07:14:08;;;;;;;36.05;30.55;;;;;;;;;;5081072;28;20040;-45
2021/11/22 07:16:34;;;;;;;76.72;55.67;;;;;;;;;;5083708;28;20181;-48
2021/11/22 07:18:59;;;;;;;167.15;126.00;;;;;;;;;;5083057;28;20040;-49
2021/11/22 07:21:25;;;;;;;275.73;215.18;;;;;;;;;;5083668;28;20130;-52
2021/11/22 07:23:50;;;;;;;175.20;146.90;;;;;;;;;;5085380;28;20087;-48
2021/11/22 07:26:16;;;;;;;177.88;138.82;;;;;;;;;;5080963;28;20052;-44
2021/11/22 07:28:41;;;;;;;158.65;126.70;;;;;;;;;;5085599;28;20048;-46
2021/11/22 07:31:07;;;;;;;176.77;135.55;;;;;;;;;;5084203;28;20540;-49
2021/11/22 07:33:32;;;;;;;163.73;126.38;;;;;;;;;;5084958;28;20562;-48
2021/11/22 07:35:58;;;;;;;137.82;107.55;;;;;;;;;;5083745;28;20775;-50
2021/11/22 07:38:23;;;;;;;91.82;76.43;;;;;;;;;;5082560;28;20066;-49
2021/11/22 07:40:50;;;;;;;77.10;60.47;;;;;;;;;;5082434;28;20131;-50
2021/11/22 07:43:15;;;;;;;80.45;64.47;;;;;;;;;;5083792;28;20416;-48
2021/11/22 07:45:41;;;;;;;90.40;80.32;;;;;;;;;;5083341;28;20056;-47
2021/11/22 07:48:06;;;;;;;113.07;93.68;;;;;;;;;;5083995;28;20125;-50
2021/11/22 07:50:32;;;;;;;131.57;102.40;;;;;;;;;;5083722;28;20044;-49
2021/11/22 07:52:57;;;;;;;141.88;118.18;;;;;;;;;;5083519;28;20040;-51
2021/11/22 07:55:23;;;;;;;109.90;88.65;;;;;;;;;;5084286;28;20071;-52
2021/11/22 07:57:52;;;;;;;92.38;72.35;;;;;;;;;;5084169;28;20536;-52
2021/11/22 08:00:18;;;;;;;64.18;54.45;;;;;;;;;;5080596;28;20036;-50
2021/11/22 08:02:43;;;;;;;49.80;41.22;;;;;;;;;;5083817;28;20047;-52
2021/11/22 08:05:09;;;;;;;60.47;50.58;;;;;;;;;;5085112;28;20025;-51
2021/11/22 08:07:40;;;;;;;60.47;50.40;;;;;;;;;;5085143;28;20043;-51
2021/11/22 08:10:16;;;;;;;55.30;49.42;;;;;;;;;;5085181;28;20059;-49
2021/11/22 08:12:41;;;;;;;61.80;50.72;;;;;;;;;;5084397;28;20052;-53
2021/11/22 08:15:10;;;;;;;61.60;55.08;;;;;;;;;;5084325;28;20046;-49
2021/11/22 08:17:40;;;;;;;90.93;73.28;;;;;;;;;;5084588;28;20132;-48
2021/11/22 08:20:15;;;;;;;108.18;89.10;;;;;;;;;;5085192;28;20051;-49
2021/11/22 08:22:41;;;;;;;83.70;67.80;;;;;;;;;;5082848;28;20044;-50
2021/11/22 08:25:07;;;;;;;75.47;67.35;;;;;;;;;;5081043;28;20037;-49
2021/11/22 08:27:33;;;;;;;63.50;53.95;;;;;;;;;;5078969;28;20041;-54
2021/11/22 08:30:01;;;;;;;74.72;63.65;;;;;;;;;;5084131;28;20042;-51
2021/11/22 08:32:26;;;;;;;83.00;66.55;;;;;;;;;;5085522;28;20200;-50
2021/11/22 08:34:52;;;;;;;85.07;75.07;;;;;;;;;;5085018;28;20483;-48
2021/11/22 08:37:18;;;;;;;90.53;72.40;;;;;;;;;;5088418;28;20071;-48
2021/11/22 08:39:43;;;;;;;94.78;68.63;;;;;;;;;;5087358;28;20058;-50
2021/11/22 08:42:08;;;;;;;111.97;91.45;;;;;;;;;;5082959;28;20354;-51
2021/11/22 08:44:34;;;;;;;142.70;123.85;;;;;;;;;;5078545;28;20068;-51
2021/11/22 08:47:00;;;;;;;132.10;117.60;;;;;;;;;;5085914;28;20101;-53
2021/11/22 08:49:25;;;;;;;165.85;137.02;;;;;;;;;;5083655;28;20542;-52
2021/11/22 08:51:51;;;;;;;173.18;141.48;;;;;;;;;;5080782;28;20047;-51
2021/11/22 08:54:16;;;;;;;157.13;124.95;;;;;;;;;;5085866;28;20036;-53
2021/11/22 08:56:42;;;;;;;114.30;99.15;;;;;;;;;;5078663;28;20093;-53
2021/11/22 08:59:07;;;;;;;104.00;84.32;;;;;;;;;;5087305;28;20500;-51
2021/11/22 09:01:32;;;;;;;71.22;62.00;;;;;;;;;;5086861;28;20040;-52
2021/11/22 09:03:58;;;;;;;102.57;91.25;;;;;;;;;;5083775;28;20062;-51
2021/11/22 09:06:23;;;;;;;96.65;82.20;;;;;;;;;;5085369;28;20032;-52
2021/11/22 09:08:49;;;;;;;85.32;76.20;;;;;;;;;;5085997;28;20800;-49
2021/11/22 09:11:15;;;;;;;76.50;68.57;;;;;;;;;;5086349;28;20130;-46
2021/11/22 09:13:41;;;;;;;104.32;71.20;;;;;;;;;;5087429;28;20483;-49
2021/11/22 09:16:06;;;;;;;68.07;56.95;;;;;;;;;;5087861;28;20097;-51
2021/11/22 09:18:32;;;;;;;41.28;36.85;;;;;;;;;;5086602;28;20407;-48
2021/11/22 09:20:57;;;;;;;33.95;29.98;;;;;;;;;;5085382;28;20469;-49
2021/11/22 09:23:23;;;;;;;34.70;31.23;;;;;;;;;;5082536;28;20047;-46
2021/11/22 09:25:51;;;;;;;39.88;32.47;;;;;;;;;;5082100;28;20053;-52
2021/11/22 09:28:17;;;;;;;40.35;33.08;;;;;;;;;;5087190;28;20079;-50
2021/11/22 09:30:42;;;;;;;52.20;42.78;;;;;;;;;;5087516;28;20080;-50
2021/11/22 09:33:10;;;;;;;58.17;48.72;;;;;;;;;;5086939;28;20146;-49
2021/11/22 09:35:35;;;;;;;68.57;53.17;;;;;;;;;;5081341;28;20142;-50
2021/11/22 09:38:01;;;;;;;66.90;53.65;;;;;;;;;;5084784;28;20517;-49
2021/11/22 09:40:26;;;;;;;96.03;77.28;;;;;;;;;;5086986;28;20076;-46
2021/11/22 09:42:55;;;;;;;170.40;140.13;;;;;;;;;;5086914;28;20046;-47
2021/11/22 09:45:21;;;;;;;185.85;139.00;;;;;;;;;;5084519;28;20047;-51
2021/11/22 09:47:46;;;;;;;190.07;151.95;;;;;;;;;;5087102;28;20047;-48
2021/11/22 09:50:12;;;;;;;183.07;135.95;;;;;;;;;;5086919;28;20495;-47
2021/11/22 09:52:37;;;;;;;141.95;116.03;;;;;;;;;;5087370;28;20074;-52
2021/11/22 09:55:03;;;;;;;108.00;94.28;;;;;;;;;;5086585;28;20039;-49
2021/11/22 09:57:28;;;;;;;97.53;69.82;;;;;;;;;;5086991;28;20071;-47
2021/11/22 09:59:54;;;;;;;73.05;57.47;;;;;;;;;;5087895;28;20060;-46
2021/11/22 10:02:19;;;;;;;64.15;55.92;;;;;;;;;;5085323;28;20043;-50
2021/11/22 10:04:44;;;;;;;59.22;51.08;;;;;;;;;;5087067;28;20062;-49
2021/11/22 10:07:10;;;;;;;57.22;46.17;;;;;;;;;;5087031;28;20142;-50
2021/11/22 10:09:44;;;;;;;65.10;43.17;;;;;;;;;;5087196;28;20077;-50
2021/11/22 10:12:10;;;;;;;47.15;42.03;;;;;;;;;;5086246;28;20117;-50
2021/11/22 10:14:35;;;;;;;41.78;34.90;;;;;;;;;;5086769;28;20146;-55
2021/11/22 10:17:00;;;;;;;29.98;26.98;;;;;;;;;;5086862;28;20035;-68
2021/11/22 10:19:26;;;;;;;42.03;32.00;;;;;;;;;;5087585;28;20045;-55
2021/11/22 10:21:51;;;;;;;40.72;30.73;;;;;;;;;;5086792;28;20539;-50
2021/11/22 10:24:16;;;;;;;55.22;48.45;;;;;;;;;;5086714;28;20051;-59
2021/11/22 10:26:45;;;;;;;92.30;65.15;;;;;;;;;;5086092;28;20101;-58
2021/11/22 10:29:21;;;;;;;75.38;67.40;;;;;;;;;;5086045;28;20048;-54
2021/11/22 10:31:48;;;;;;;33.67;27.25;;;;;;;;;;5086440;28;20044;-55
2021/11/22 10:34:14;;;;;;;16.27;14.52;;;;;;;;;;5085513;28;20070;-57
2021/11/22 10:36:39;;;;;;;11.68;10.40;;;;;;;;;;5083453;28;20036;-57
2021/11/22 10:39:05;;;;;;;8.43;7.57;;;;;;;;;;5085805;28;20040;-57
2021/11/22 10:41:32;;;;;;;13.23;7.88;;;;;;;;;;5085557;28;20433;-58
2021/11/22 10:44:03;;;;;;;13.20;11.13;;;;;;;;;;5086748;28;20043;-58
2021/11/22 10:46:40;;;;;;;45.47;34.20;;;;;;;;;;5085504;28;20044;-58
2021/11/22 10:49:09;;;;;;;45.05;35.45;;;;;;;;;;5084645;28;20083;-58
2021/11/22 10:51:40;;;;;;;47.58;32.65;;;;;;;;;;5083393;28;20221;-57
2021/11/22 10:54:06;;;;;;;43.88;37.97;;;;;;;;;;5083384;28;20112;-58
2021/11/22 10:56:36;;;;;;;57.88;44.40;;;;;;;;;;5084529;28;20039;-56
2021/11/22 10:59:16;;;;;;;66.97;59.63;;;;;;;;;;5082561;28;20506;-58
2021/11/22 11:01:41;;;;;;;72.20;59.35;;;;;;;;;;5084461;28;20048;-59
2021/11/22 11:04:12;;;;;;;76.35;61.53;;;;;;;;;;5084984;28;20556;-58
2021/11/22 11:06:38;;;;;;;57.85;40.95;;;;;;;;;;5086487;28;20522;-59
2021/11/22 11:09:04;;;;;;;37.67;32.50;;;;;;;;;;5085262;28;20051;-58
2021/11/22 11:11:30;;;;;;;47.85;31.55;;;;;;;;;;5084908;28;20052;-59
2021/11/22 11:13:55;;;;;;;20.27;18.25;;;;;;;;;;5077297;28;20459;-60
2021/11/22 11:16:21;;;;;;;32.63;25.75;;;;;;;;;;5082855;28;20548;-59
2021/11/22 11:19:06;;;;;;;40.20;32.80;;;;;;;;;;5085408;28;20032;-61
2021/11/22 11:21:34;;;;;;;45.60;37.47;;;;;;;;;;5085588;28;20079;-50
2021/11/22 11:24:00;;;;;;;33.72;28.33;;;;;;;;;;5085517;28;20051;-58
2021/11/22 11:26:25;;;;;;;108.78;95.90;;;;;;;;;;5086174;28;20039;-58
2021/11/22 11:28:51;;;;;;;84.05;69.65;;;;;;;;;;5085211;28;20423;-68
2021/11/22 11:31:16;;;;;;;41.88;37.03;;;;;;;;;;5084040;28;20747;-67
2021/11/22 11:33:42;;;;;;;93.07;73.20;;;;;;;;;;5083184;28;20051;-67
2021/11/22 11:36:12;;;;;;;182.65;145.80;;;;;;;;;;5084203;28;20035;-66
2021/11/22 11:38:41;;;;;;;49.13;37.53;;;;;;;;;;5081765;28;20051;-67
2021/11/22 11:41:15;;;;;;;110.50;72.78;;;;;;;;;;5084999;28;20048;-67
2021/11/22 11:43:58;;;;;;;104.57;79.55;;;;;;;;;;5082855;28;20044;-67
2021/11/22 11:46:42;;;;;;;225.73;180.90;;;;;;;;;;5083590;28;20044;-65
2021/11/22 11:49:11;;;;;;;126.85;106.25;;;;;;;;;;5083752;28;20056;-67
2021/11/22 11:51:39;;;;;;;65.55;51.60;;;;;;;;;;5084040;28;20032;-67
2021/11/22 11:54:07;;;;;;;115.25;89.68;;;;;;;;;;5085302;28;20493;-67
2021/11/22 11:56:39;;;;;;;253.30;199.80;;;;;;;;;;5083759;28;20087;-66
2021/11/22 11:59:19;;;;;;;105.65;82.00;;;;;;;;;;5081817;28;20048;-72
2021/11/22 12:01:57;;;;;;;625.65;505.40;;;;;;;;;;5079498;28;20079;-68
2021/11/22 12:04:22;;;;;;;281.13;214.88;;;;;;;;;;5080588;28;20040;-68
2021/11/22 12:06:50;;;;;;;371.17;299.70;;;;;;;;;;5084158;28;20044;-68
2021/11/22 12:09:29;;;;;;;116.18;102.32;;;;;;;;;;5088436;28;20154;-67
2021/11/22 12:11:58;;;;;;;59.88;37.80;;;;;;;;;;5082468;28;20051;-70
2021/11/22 12:14:42;;;;;;;67.47;49.92;;;;;;;;;;5082249;28;20048;-69
2021/11/22 12:17:08;;;;;;;43.10;33.10;;;;;;;;;;5086480;28;20052;-66
2021/11/22 12:19:40;;;;;;;36.05;21.23;;;;;;;;;;5088646;28;20047;-66
2021/11/22 12:22:07;;;;;;;16.33;14.43;;;;;;;;;;5088082;28;20052;-67
2021/11/22 12:24:40;;;;;;;32.50;22.23;;;;;;;;;;5086644;28;20036;-67
2021/11/22 12:27:40;;;;;;;28.23;22.45;;;;;;;;;;5087748;28;20398;-69
2021/11/22 12:30:24;;;;;;;31.23;22.57;;;;;;;;;;5017784;28;20111;-66
2021/11/22 12:32:49;;;;;;;46.60;25.98;;;;;;;;;;5073662;28;20085;-64
2021/11/22 12:35:15;;;;;;;37.45;26.55;;;;;;;;;;5083411;28;20052;-64
2021/11/22 12:37:40;;;;;;;29.58;23.15;;;;;;;;;;5085968;28;20036;-65
2021/11/22 12:40:10;;;;;;;36.17;28.15;;;;;;;;;;5088736;28;20040;-64
2021/11/22 12:42:45;;;;;;;28.65;24.35;;;;;;;;;;5099132;28;20048;-65
2021/11/22 12:45:10;;;;;;;26.88;21.40;;;;;;;;;;5085000;28;20039;-67
2021/11/22 12:47:36;;;;;;;17.75;14.85;;;;;;;;;;5088225;28;20043;-66
2021/11/22 12:50:09;;;;;;;15.35;10.82;;;;;;;;;;5088098;28;20072;-67
2021/11/22 12:52:36;;;;;;;62.20;48.13;;;;;;;;;;5087776;28;20040;-67
2021/11/22 12:55:07;;;;;;;215.05;146.63;;;;;;;;;;5087470;28;20046;-67
2021/11/22 12:57:37;;;;;;;176.23;120.57;;;;;;;;;;5082460;28;20052;-67
2021/11/22 13:00:12;;;;;;;134.07;79.10;;;;;;;;;;5087019;28;20056;-67
2021/11/22 13:02:38;;;;;;;67.45;44.85;;;;;;;;;;5087745;28;20062;-67
2021/11/22 13:05:04;;;;;;;50.92;33.05;;;;;;;;;;5085881;28;20174;-67
2021/11/22 13:07:36;;;;;;;47.95;34.17;;;;;;;;;;5087737;28;20036;-66
2021/11/22 13:10:08;;;;;;;37.03;25.45;;;;;;;;;;5086874;28;20633;-67
2021/11/22 13:12:36;;;;;;;20.33;18.27;;;;;;;;;;5087069;28;20032;-67
2021/11/22 13:15:13;;;;;;;27.55;19.52;;;;;;;;;;5079790;28;20044;-65
2021/11/22 13:17:39;;;;;;;40.97;32.25;;;;;;;;;;5087157;28;20102;-66
2021/11/22 13:20:04;;;;;;;67.38;42.42;;;;;;;;;;5086919;28;20052;-65
2021/11/22 13:22:30;;;;;;;66.20;43.95;;;;;;;;;;5085779;28;20491;-65
2021/11/22 13:24:55;;;;;;;44.08;33.67;;;;;;;;;;5083410;28;20146;-65
2021/11/22 13:27:20;;;;;;;45.28;36.40;;;;;;;;;;5083419;28;20051;-65
2021/11/22 13:29:46;;;;;;;19.13;14.70;;;;;;;;;;5086031;28;20059;-65
2021/11/22 13:32:11;;;;;;;29.52;17.48;;;;;;;;;;5086954;28;20052;-66
2021/11/22 13:34:36;;;;;;;21.08;15.98;;;;;;;;;;5082681;28;20431;-65
2021/11/22 13:37:09;;;;;;;27.48;16.00;;;;;;;;;;5087065;28;20058;-64
2021/11/22 13:39:39;;;;;;;16.45;12.45;;;;;;;;;;5085053;28;20113;-64
2021/11/22 13:42:07;;;;;;;16.40;14.63;;;;;;;;;;5086508;28;20545;-65
2021/11/22 13:44:43;;;;;;;30.58;18.10;;;;;;;;;;5086932;28;20139;-64
2021/11/22 13:47:10;;;;;;;39.20;26.35;;;;;;;;;;5087039;28;20079;-65
2021/11/22 13:49:35;;;;;;;50.15;37.85;;;;;;;;;;5087021;28;20054;-64
2021/11/22 13:52:01;;;;;;;34.00;28.85;;;;;;;;;;5086941;28;20040;-65
2021/11/22 13:54:27;;;;;;;21.30;17.67;;;;;;;;;;5084778;28;20055;-65
2021/11/22 13:57:01;;;;;;;20.65;18.52;;;;;;;;;;5087267;28;20418;-65
2021/11/22 13:59:32;;;;;;;23.92;20.80;;;;;;;;;;5087060;28;20082;-65
2021/11/22 14:02:01;;;;;;;42.80;36.47;;;;;;;;;;5086930;28;20044;-64
2021/11/22 14:04:29;;;;;;;24.88;20.00;;;;;;;;;;5086871;28;20101;-64
2021/11/22 14:06:54;;;;;;;17.42;13.60;;;;;;;;;;5087248;28;20043;-65
2021/11/22 14:09:21;;;;;;;17.80;10.27;;;;;;;;;;5086465;28;20028;-65
2021/11/22 14:11:47;;;;;;;11.80;8.75;;;;;;;;;;5087433;28;20051;-65
2021/11/22 14:14:17;;;;;;;9.80;6.60;;;;;;;;;;5087079;28;20040;-65
2021/11/22 14:16:46;;;;;;;7.80;6.97;;;;;;;;;;5080036;28;20102;-64
2021/11/22 14:19:12;;;;;;;7.88;5.68;;;;;;;;;;5084237;28;20036;-65
2021/11/22 14:21:37;;;;;;;14.43;6.40;;;;;;;;;;5085660;28;20043;-65
2021/11/22 14:24:22;;;;;;;6.63;4.20;;;;;;;;;;5086554;28;20423;-65